Tunnerville, South Dakota
Current Conditions -  °F | °C
As of 12:14 AM on Thursday 23 Oct 2014 (Local Time) from KCNB Reporting Station
Clear Clear  
Wind Chill: 54°   Ceiling: Unl
Heat Index: 54°   Visibility: 10mi
Dew Point: 51°   Wind: 9mph
Humidity: 91%   Direction: 230°SW
Pressure: 29.99"   Gusts: NA
Location:  44.7895°N, 96.7201°W
Report Text: KCNB 230514Z AUTO 23008KT 10SM CLR 12/11 A2999 RMK AO2 T01220108
Loading
Personal Weather Stations






























Interactive Weather Map New forecast layout! Learn more

10-Day Weather Forecast

Advertisements
Track Severe Weather on mobile